sensor_id;sensor_type;location;lat;lon;timestamp;P1;durP1;ratioP1;P2;durP2;ratioP2
20076;SDS011;12348;42.710;23.378;2023-08-12T00:00:06;2.20;;;1.90;;
20076;SDS011;12348;42.710;23.378;2023-08-12T00:02:36;2.27;;;2.07;;
20076;SDS011;12348;42.710;23.378;2023-08-12T00:05:03;6.07;;;3.20;;
20076;SDS011;12348;42.710;23.378;2023-08-12T00:07:31;4.53;;;3.97;;
20076;SDS011;12348;42.710;23.378;2023-08-12T00:10:00;11.13;;;5.13;;
20076;SDS011;12348;42.710;23.378;2023-08-12T00:12:30;5.07;;;2.77;;
20076;SDS011;12348;42.710;23.378;2023-08-12T00:14:58;11.30;;;6.23;;
20076;SDS011;12348;42.710;23.378;2023-08-12T00:17:24;6.27;;;3.73;;
20076;SDS011;12348;42.710;23.378;2023-08-12T00:19:52;0.20;;;0.20;;
20076;SDS011;12348;42.710;23.378;2023-08-12T00:22:18;2.57;;;2.10;;
20076;SDS011;12348;42.710;23.378;2023-08-12T00:24:45;2.83;;;2.73;;
20076;SDS011;12348;42.710;23.378;2023-08-12T00:27:12;0.20;;;0.20;;
20076;SDS011;12348;42.710;23.378;2023-08-12T00:29:40;0.50;;;0.40;;
20076;SDS011;12348;42.710;23.378;2023-08-12T00:32:08;0.20;;;0.20;;
20076;SDS011;12348;42.710;23.378;2023-08-12T00:34:34;0.20;;;0.20;;
20076;SDS011;12348;42.710;23.378;2023-08-12T00:37:01;1.17;;;1.07;;
20076;SDS011;12348;42.710;23.378;2023-08-12T00:39:28;0.63;;;0.63;;
20076;SDS011;12348;42.710;23.378;2023-08-12T00:41:55;0.53;;;0.53;;
20076;SDS011;12348;42.710;23.378;2023-08-12T00:44:21;0.97;;;0.97;;
20076;SDS011;12348;42.710;23.378;2023-08-12T00:46:50;0.20;;;0.20;;
20076;SDS011;12348;42.710;23.378;2023-08-12T00:49:17;0.60;;;0.60;;
20076;SDS011;12348;42.710;23.378;2023-08-12T00:51:45;2.60;;;2.17;;
20076;SDS011;12348;42.710;23.378;2023-08-12T00:54:13;3.80;;;3.10;;
20076;SDS011;12348;42.710;23.378;2023-08-12T00:56:40;4.93;;;3.30;;
20076;SDS011;12348;42.710;23.378;2023-08-12T00:59:08;1.13;;;0.93;;
20076;SDS011;12348;42.710;23.378;2023-08-12T01:01:37;1.53;;;1.43;;
20076;SDS011;12348;42.710;23.378;2023-08-12T01:04:08;0.73;;;0.37;;
20076;SDS011;12348;42.710;23.378;2023-08-12T01:06:35;3.00;;;1.27;;
20076;SDS011;12348;42.710;23.378;2023-08-12T01:09:03;2.13;;;0.77;;
20076;SDS011;12348;42.710;23.378;2023-08-12T01:11:34;0.20;;;0.20;;
20076;SDS011;12348;42.710;23.378;2023-08-12T01:14:06;0.20;;;0.20;;
20076;SDS011;12348;42.710;23.378;2023-08-12T01:16:40;0.67;;;0.67;;
20076;SDS011;12348;42.710;23.378;2023-08-12T01:19:16;1.10;;;1.03;;
20076;SDS011;12348;42.710;23.378;2023-08-12T01:21:49;2.37;;;1.27;;
20076;SDS011;12348;42.710;23.378;2023-08-12T01:24:24;2.93;;;2.70;;
20076;SDS011;12348;42.710;23.378;2023-08-12T01:26:51;6.37;;;3.80;;
20076;SDS011;12348;42.710;23.378;2023-08-12T01:29:18;5.80;;;3.50;;
20076;SDS011;12348;42.710;23.378;2023-08-12T01:31:45;4.67;;;2.97;;
20076;SDS011;12348;42.710;23.378;2023-08-12T01:34:21;3.73;;;3.33;;
20076;SDS011;12348;42.710;23.378;2023-08-12T01:36:54;5.60;;;3.03;;
20076;SDS011;12348;42.710;23.378;2023-08-12T01:39:24;5.70;;;3.33;;
20076;SDS011;12348;42.710;23.378;2023-08-12T01:41:52;4.60;;;3.20;;
20076;SDS011;12348;42.710;23.378;2023-08-12T01:44:21;6.00;;;3.37;;
20076;SDS011;12348;42.710;23.378;2023-08-12T01:46:48;4.53;;;3.37;;
20076;SDS011;12348;42.710;23.378;2023-08-12T01:49:15;4.03;;;3.40;;
20076;SDS011;12348;42.710;23.378;2023-08-12T01:51:42;7.27;;;3.93;;
20076;SDS011;12348;42.710;23.378;2023-08-12T01:54:09;5.17;;;3.63;;
20076;SDS011;12348;42.710;23.378;2023-08-12T01:56:37;5.43;;;3.87;;
20076;SDS011;12348;42.710;23.378;2023-08-12T01:59:04;4.73;;;3.90;;
20076;SDS011;12348;42.710;23.378;2023-08-12T02:01:30;5.63;;;4.20;;
20076;SDS011;12348;42.710;23.378;2023-08-12T02:03:57;6.77;;;4.90;;
20076;SDS011;12348;42.710;23.378;2023-08-12T02:06:25;9.10;;;5.33;;
20076;SDS011;12348;42.710;23.378;2023-08-12T02:08:51;7.17;;;4.40;;
20076;SDS011;12348;42.710;23.378;2023-08-12T02:11:18;4.83;;;3.77;;
20076;SDS011;12348;42.710;23.378;2023-08-12T02:13:46;5.07;;;4.53;;
20076;SDS011;12348;42.710;23.378;2023-08-12T02:16:13;8.07;;;5.17;;
20076;SDS011;12348;42.710;23.378;2023-08-12T02:18:39;5.70;;;4.50;;
20076;SDS011;12348;42.710;23.378;2023-08-12T02:21:06;8.80;;;4.60;;
20076;SDS011;12348;42.710;23.378;2023-08-12T02:23:33;5.27;;;4.63;;
20076;SDS011;12348;42.710;23.378;2023-08-12T02:26:00;7.20;;;4.70;;
20076;SDS011;12348;42.710;23.378;2023-08-12T02:28:27;4.93;;;4.40;;
20076;SDS011;12348;42.710;23.378;2023-08-12T02:30:55;7.10;;;5.20;;
20076;SDS011;12348;42.710;23.378;2023-08-12T02:33:22;9.57;;;5.27;;
20076;SDS011;12348;42.710;23.378;2023-08-12T02:35:52;9.47;;;5.33;;
20076;SDS011;12348;42.710;23.378;2023-08-12T02:38:19;5.70;;;5.10;;
20076;SDS011;12348;42.710;23.378;2023-08-12T02:40:47;10.20;;;5.23;;
20076;SDS011;12348;42.710;23.378;2023-08-12T02:43:14;6.80;;;5.10;;
20076;SDS011;12348;42.710;23.378;2023-08-12T02:45:41;6.33;;;4.63;;
20076;SDS011;12348;42.710;23.378;2023-08-12T02:48:09;8.07;;;3.70;;
20076;SDS011;12348;42.710;23.378;2023-08-12T02:50:36;8.80;;;3.50;;
20076;SDS011;12348;42.710;23.378;2023-08-12T02:53:03;6.67;;;3.97;;
20076;SDS011;12348;42.710;23.378;2023-08-12T02:55:30;5.60;;;3.50;;
20076;SDS011;12348;42.710;23.378;2023-08-12T02:57:58;4.13;;;3.30;;
20076;SDS011;12348;42.710;23.378;2023-08-12T03:00:24;5.23;;;3.67;;
20076;SDS011;12348;42.710;23.378;2023-08-12T03:02:51;4.60;;;3.93;;
20076;SDS011;12348;42.710;23.378;2023-08-12T03:05:19;4.90;;;4.10;;
20076;SDS011;12348;42.710;23.378;2023-08-12T03:07:46;6.23;;;4.27;;
20076;SDS011;12348;42.710;23.378;2023-08-12T03:10:13;6.50;;;4.40;;
20076;SDS011;12348;42.710;23.378;2023-08-12T03:12:39;7.20;;;4.27;;
20076;SDS011;12348;42.710;23.378;2023-08-12T03:15:06;9.17;;;4.50;;
20076;SDS011;12348;42.710;23.378;2023-08-12T03:17:34;7.57;;;4.20;;
20076;SDS011;12348;42.710;23.378;2023-08-12T03:20:00;8.63;;;4.23;;
20076;SDS011;12348;42.710;23.378;2023-08-12T03:22:31;5.90;;;4.50;;
20076;SDS011;12348;42.710;23.378;2023-08-12T03:24:58;4.03;;;3.57;;
20076;SDS011;12348;42.710;23.378;2023-08-12T03:27:24;6.40;;;4.40;;
20076;SDS011;12348;42.710;23.378;2023-08-12T03:29:51;6.37;;;4.57;;
20076;SDS011;12348;42.710;23.378;2023-08-12T03:32:18;7.43;;;5.07;;
20076;SDS011;12348;42.710;23.378;2023-08-12T03:34:45;7.53;;;4.20;;
20076;SDS011;12348;42.710;23.378;2023-08-12T03:37:11;6.67;;;4.40;;
20076;SDS011;12348;42.710;23.378;2023-08-12T03:39:40;5.60;;;4.23;;
20076;SDS011;12348;42.710;23.378;2023-08-12T03:42:06;7.33;;;4.43;;
20076;SDS011;12348;42.710;23.378;2023-08-12T03:44:33;6.87;;;4.93;;
20076;SDS011;12348;42.710;23.378;2023-08-12T03:47:00;6.10;;;4.47;;
20076;SDS011;12348;42.710;23.378;2023-08-12T03:49:26;9.60;;;4.67;;
20076;SDS011;12348;42.710;23.378;2023-08-12T03:51:53;5.10;;;4.40;;
20076;SDS011;12348;42.710;23.378;2023-08-12T03:54:20;5.23;;;4.23;;
20076;SDS011;12348;42.710;23.378;2023-08-12T03:56:48;7.77;;;4.10;;
20076;SDS011;12348;42.710;23.378;2023-08-12T03:59:14;5.80;;;4.20;;
20076;SDS011;12348;42.710;23.378;2023-08-12T04:01:41;10.57;;;4.83;;
20076;SDS011;12348;42.710;23.378;2023-08-12T04:04:08;5.97;;;4.33;;
20076;SDS011;12348;42.710;23.378;2023-08-12T04:06:34;7.27;;;4.50;;
20076;SDS011;12348;42.710;23.378;2023-08-12T04:09:01;6.03;;;4.03;;
20076;SDS011;12348;42.710;23.378;2023-08-12T04:11:28;5.10;;;3.07;;
20076;SDS011;12348;42.710;23.378;2023-08-12T04:13:56;6.33;;;3.70;;
20076;SDS011;12348;42.710;23.378;2023-08-12T04:16:23;8.00;;;3.23;;
20076;SDS011;12348;42.710;23.378;2023-08-12T04:18:49;6.30;;;3.40;;
20076;SDS011;12348;42.710;23.378;2023-08-12T04:21:16;4.93;;;3.90;;
20076;SDS011;12348;42.710;23.378;2023-08-12T04:23:43;4.67;;;3.60;;
20076;SDS011;12348;42.710;23.378;2023-08-12T04:26:09;7.70;;;4.93;;
20076;SDS011;12348;42.710;23.378;2023-08-12T04:28:36;9.67;;;6.90;;
20076;SDS011;12348;42.710;23.378;2023-08-12T04:31:06;7.00;;;5.33;;
20076;SDS011;12348;42.710;23.378;2023-08-12T04:33:33;5.57;;;4.20;;
20076;SDS011;12348;42.710;23.378;2023-08-12T04:36:00;10.43;;;4.37;;
20076;SDS011;12348;42.710;23.378;2023-08-12T04:38:27;7.00;;;4.30;;
20076;SDS011;12348;42.710;23.378;2023-08-12T04:40:53;7.67;;;3.70;;
20076;SDS011;12348;42.710;23.378;2023-08-12T04:43:20;6.97;;;3.70;;
20076;SDS011;12348;42.710;23.378;2023-08-12T04:45:47;5.63;;;3.70;;
20076;SDS011;12348;42.710;23.378;2023-08-12T04:48:15;4.63;;;3.37;;
20076;SDS011;12348;42.710;23.378;2023-08-12T04:50:42;4.03;;;2.87;;
20076;SDS011;12348;42.710;23.378;2023-08-12T04:53:09;5.03;;;3.47;;
20076;SDS011;12348;42.710;23.378;2023-08-12T04:55:36;6.97;;;4.70;;
20076;SDS011;12348;42.710;23.378;2023-08-12T04:58:03;15.73;;;5.20;;
20076;SDS011;12348;42.710;23.378;2023-08-12T05:00:30;8.93;;;4.27;;
20076;SDS011;12348;42.710;23.378;2023-08-12T05:02:57;6.23;;;4.43;;
20076;SDS011;12348;42.710;23.378;2023-08-12T05:05:26;4.57;;;3.43;;
20076;SDS011;12348;42.710;23.378;2023-08-12T05:07:53;6.23;;;3.40;;
20076;SDS011;12348;42.710;23.378;2023-08-12T05:10:20;6.07;;;3.77;;
20076;SDS011;12348;42.710;23.378;2023-08-12T05:12:47;13.20;;;7.47;;
20076;SDS011;12348;42.710;23.378;2023-08-12T05:15:15;6.93;;;4.07;;
20076;SDS011;12348;42.710;23.378;2023-08-12T05:17:42;12.17;;;7.70;;
20076;SDS011;12348;42.710;23.378;2023-08-12T05:20:09;10.87;;;6.60;;
20076;SDS011;12348;42.710;23.378;2023-08-12T05:22:37;8.17;;;5.33;;
20076;SDS011;12348;42.710;23.378;2023-08-12T05:25:04;8.03;;;5.00;;
20076;SDS011;12348;42.710;23.378;2023-08-12T05:27:32;10.70;;;6.23;;
20076;SDS011;12348;42.710;23.378;2023-08-12T05:29:58;6.63;;;5.00;;
20076;SDS011;12348;42.710;23.378;2023-08-12T05:32:25;8.77;;;5.77;;
20076;SDS011;12348;42.710;23.378;2023-08-12T05:34:52;9.47;;;5.83;;
20076;SDS011;12348;42.710;23.378;2023-08-12T05:37:21;6.10;;;4.70;;
20076;SDS011;12348;42.710;23.378;2023-08-12T05:39:49;5.40;;;3.60;;
20076;SDS011;12348;42.710;23.378;2023-08-12T05:42:16;6.00;;;3.90;;
20076;SDS011;12348;42.710;23.378;2023-08-12T05:44:43;4.80;;;3.20;;
20076;SDS011;12348;42.710;23.378;2023-08-12T05:47:10;7.10;;;3.33;;
20076;SDS011;12348;42.710;23.378;2023-08-12T05:49:36;4.87;;;3.37;;
20076;SDS011;12348;42.710;23.378;2023-08-12T05:52:03;6.37;;;3.80;;
20076;SDS011;12348;42.710;23.378;2023-08-12T05:54:30;11.57;;;3.90;;
20076;SDS011;12348;42.710;23.378;2023-08-12T05:56:59;6.20;;;3.90;;
20076;SDS011;12348;42.710;23.378;2023-08-12T05:59:26;3.40;;;2.93;;
20076;SDS011;12348;42.710;23.378;2023-08-12T06:01:53;6.03;;;3.67;;
20076;SDS011;12348;42.710;23.378;2023-08-12T06:04:20;6.00;;;4.60;;
20076;SDS011;12348;42.710;23.378;2023-08-12T06:06:46;9.30;;;5.80;;
20076;SDS011;12348;42.710;23.378;2023-08-12T06:09:13;12.97;;;6.70;;
20076;SDS011;12348;42.710;23.378;2023-08-12T06:11:40;14.03;;;8.60;;
20076;SDS011;12348;42.710;23.378;2023-08-12T06:14:08;12.53;;;8.50;;
20076;SDS011;12348;42.710;23.378;2023-08-12T06:16:35;10.70;;;5.30;;
20076;SDS011;12348;42.710;23.378;2023-08-12T06:19:01;7.35;;;5.10;;
20076;SDS011;12348;42.710;23.378;2023-08-12T06:21:28;11.60;;;6.83;;
20076;SDS011;12348;42.710;23.378;2023-08-12T06:23:55;10.55;;;4.55;;
20076;SDS011;12348;42.710;23.378;2023-08-12T06:26:22;6.55;;;5.03;;
20076;SDS011;12348;42.710;23.378;2023-08-12T06:28:48;14.32;;;7.28;;
20076;SDS011;12348;42.710;23.378;2023-08-12T06:31:17;11.10;;;6.85;;
20076;SDS011;12348;42.710;23.378;2023-08-12T06:33:43;12.95;;;8.57;;
20076;SDS011;12348;42.710;23.378;2023-08-12T06:36:10;10.90;;;6.43;;
20076;SDS011;12348;42.710;23.378;2023-08-12T06:38:37;11.90;;;6.85;;
20076;SDS011;12348;42.710;23.378;2023-08-12T06:41:04;16.00;;;8.30;;
20076;SDS011;12348;42.710;23.378;2023-08-12T06:43:31;18.60;;;7.47;;
20076;SDS011;12348;42.710;23.378;2023-08-12T06:45:57;8.68;;;6.15;;
20076;SDS011;12348;42.710;23.378;2023-08-12T06:48:25;10.63;;;7.18;;
20076;SDS011;12348;42.710;23.378;2023-08-12T06:50:53;8.10;;;5.18;;
20076;SDS011;12348;42.710;23.378;2023-08-12T06:53:20;8.07;;;4.55;;
20076;SDS011;12348;42.710;23.378;2023-08-12T06:55:47;8.57;;;4.97;;
20076;SDS011;12348;42.710;23.378;2023-08-12T06:58:14;8.50;;;4.30;;
20076;SDS011;12348;42.710;23.378;2023-08-12T07:00:41;9.88;;;4.75;;
20076;SDS011;12348;42.710;23.378;2023-08-12T07:03:08;7.47;;;4.07;;
20076;SDS011;12348;42.710;23.378;2023-08-12T07:05:36;6.15;;;3.90;;
20076;SDS011;12348;42.710;23.378;2023-08-12T07:08:03;11.90;;;4.35;;
20076;SDS011;12348;42.710;23.378;2023-08-12T07:10:30;9.60;;;4.65;;
20076;SDS011;12348;42.710;23.378;2023-08-12T07:12:57;5.78;;;3.92;;
20076;SDS011;12348;42.710;23.378;2023-08-12T07:15:24;6.70;;;3.58;;
20076;SDS011;12348;42.710;23.378;2023-08-12T07:17:50;4.90;;;3.90;;
20076;SDS011;12348;42.710;23.378;2023-08-12T07:20:17;5.80;;;3.50;;
20076;SDS011;12348;42.710;23.378;2023-08-12T07:22:45;7.07;;;4.15;;
20076;SDS011;12348;42.710;23.378;2023-08-12T07:25:12;7.95;;;3.30;;
20076;SDS011;12348;42.710;23.378;2023-08-12T07:27:39;4.68;;;3.50;;
20076;SDS011;12348;42.710;23.378;2023-08-12T07:30:06;3.97;;;3.10;;
20076;SDS011;12348;42.710;23.378;2023-08-12T07:32:34;9.73;;;3.90;;
20076;SDS011;12348;42.710;23.378;2023-08-12T07:35:02;4.82;;;3.22;;
20076;SDS011;12348;42.710;23.378;2023-08-12T07:37:30;4.72;;;2.80;;
20076;SDS011;12348;42.710;23.378;2023-08-12T07:39:59;4.90;;;3.05;;
20076;SDS011;12348;42.710;23.378;2023-08-12T07:42:26;4.95;;;2.83;;
20076;SDS011;12348;42.710;23.378;2023-08-12T07:44:53;4.47;;;2.38;;
20076;SDS011;12348;42.710;23.378;2023-08-12T07:47:19;5.57;;;2.47;;
20076;SDS011;12348;42.710;23.378;2023-08-12T07:49:46;2.47;;;1.98;;
20076;SDS011;12348;42.710;23.378;2023-08-12T07:52:13;4.25;;;2.47;;
20076;SDS011;12348;42.710;23.378;2023-08-12T07:54:40;4.28;;;2.35;;
20076;SDS011;12348;42.710;23.378;2023-08-12T07:57:08;3.20;;;2.15;;
20076;SDS011;12348;42.710;23.378;2023-08-12T07:59:34;4.03;;;2.72;;
20076;SDS011;12348;42.710;23.378;2023-08-12T08:02:01;3.63;;;2.30;;
20076;SDS011;12348;42.710;23.378;2023-08-12T08:04:28;2.10;;;1.88;;
20076;SDS011;12348;42.710;23.378;2023-08-12T08:06:55;8.60;;;3.03;;
20076;SDS011;12348;42.710;23.378;2023-08-12T08:09:21;2.88;;;2.13;;
20076;SDS011;12348;42.710;23.378;2023-08-12T08:11:49;4.40;;;2.47;;
20076;SDS011;12348;42.710;23.378;2023-08-12T08:14:17;3.95;;;2.20;;
20076;SDS011;12348;42.710;23.378;2023-08-12T08:16:44;3.13;;;2.03;;
20076;SDS011;12348;42.710;23.378;2023-08-12T08:19:10;6.18;;;1.60;;
20076;SDS011;12348;42.710;23.378;2023-08-12T08:21:37;3.47;;;2.40;;
20076;SDS011;12348;42.710;23.378;2023-08-12T08:24:04;2.35;;;2.00;;
20076;SDS011;12348;42.710;23.378;2023-08-12T08:26:31;2.85;;;2.25;;
20076;SDS011;12348;42.710;23.378;2023-08-12T08:28:58;1.83;;;1.58;;
20076;SDS011;12348;42.710;23.378;2023-08-12T08:31:26;5.03;;;2.00;;
20076;SDS011;12348;42.710;23.378;2023-08-12T08:33:53;4.45;;;2.10;;
20076;SDS011;12348;42.710;23.378;2023-08-12T08:36:20;2.83;;;1.80;;
20076;SDS011;12348;42.710;23.378;2023-08-12T08:38:46;5.18;;;2.80;;
20076;SDS011;12348;42.710;23.378;2023-08-12T08:41:13;4.72;;;2.08;;
20076;SDS011;12348;42.710;23.378;2023-08-12T08:43:42;4.30;;;2.05;;
20076;SDS011;12348;42.710;23.378;2023-08-12T08:46:10;5.35;;;2.38;;
20076;SDS011;12348;42.710;23.378;2023-08-12T08:48:41;5.50;;;2.40;;
20076;SDS011;12348;42.710;23.378;2023-08-12T08:51:08;2.70;;;2.05;;
20076;SDS011;12348;42.710;23.378;2023-08-12T08:53:37;3.42;;;2.10;;
20076;SDS011;12348;42.710;23.378;2023-08-12T08:56:04;2.85;;;2.50;;
20076;SDS011;12348;42.710;23.378;2023-08-12T08:58:31;3.05;;;2.22;;
20076;SDS011;12348;42.710;23.378;2023-08-12T09:00:58;1.95;;;1.80;;
20076;SDS011;12348;42.710;23.378;2023-08-12T09:03:25;2.80;;;2.47;;
20076;SDS011;12348;42.710;23.378;2023-08-12T09:05:54;2.28;;;2.05;;
20076;SDS011;12348;42.710;23.378;2023-08-12T09:08:22;3.08;;;2.03;;
20076;SDS011;12348;42.710;23.378;2023-08-12T09:10:49;7.43;;;2.00;;
20076;SDS011;12348;42.710;23.378;2023-08-12T09:13:16;6.25;;;1.80;;
20076;SDS011;12348;42.710;23.378;2023-08-12T09:15:44;3.65;;;2.10;;
20076;SDS011;12348;42.710;23.378;2023-08-12T09:18:10;6.60;;;2.10;;
20076;SDS011;12348;42.710;23.378;2023-08-12T09:20:37;4.03;;;2.63;;
20076;SDS011;12348;42.710;23.378;2023-08-12T09:23:06;2.10;;;1.90;;
20076;SDS011;12348;42.710;23.378;2023-08-12T09:25:34;3.30;;;2.27;;
20076;SDS011;12348;42.710;23.378;2023-08-12T09:28:01;3.77;;;2.47;;
20076;SDS011;12348;42.710;23.378;2023-08-12T09:30:28;4.23;;;2.10;;
20076;SDS011;12348;42.710;23.378;2023-08-12T09:32:59;3.03;;;1.90;;
20076;SDS011;12348;42.710;23.378;2023-08-12T09:35:33;4.38;;;2.50;;
20076;SDS011;12348;42.710;23.378;2023-08-12T09:38:01;6.38;;;3.15;;
20076;SDS011;12348;42.710;23.378;2023-08-12T09:40:31;6.38;;;2.15;;
20076;SDS011;12348;42.710;23.378;2023-08-12T09:42:58;1.95;;;1.77;;
20076;SDS011;12348;42.710;23.378;2023-08-12T09:45:25;3.13;;;2.22;;
20076;SDS011;12348;42.710;23.378;2023-08-12T09:47:52;2.75;;;2.22;;
20076;SDS011;12348;42.710;23.378;2023-08-12T09:50:20;8.80;;;1.83;;
20076;SDS011;12348;42.710;23.378;2023-08-12T09:52:49;3.67;;;2.10;;
20076;SDS011;12348;42.710;23.378;2023-08-12T09:55:17;3.05;;;2.20;;
20076;SDS011;12348;42.710;23.378;2023-08-12T09:57:51;4.00;;;2.92;;
20076;SDS011;12348;42.710;23.378;2023-08-12T10:00:19;3.00;;;1.85;;
20076;SDS011;12348;42.710;23.378;2023-08-12T10:02:47;2.05;;;1.80;;
20076;SDS011;12348;42.710;23.378;2023-08-12T10:05:18;2.45;;;1.88;;
20076;SDS011;12348;42.710;23.378;2023-08-12T10:07:47;4.03;;;2.22;;
20076;SDS011;12348;42.710;23.378;2023-08-12T10:10:14;3.05;;;1.67;;
20076;SDS011;12348;42.710;23.378;2023-08-12T10:12:41;3.33;;;2.80;;
20076;SDS011;12348;42.710;23.378;2023-08-12T10:15:10;4.68;;;2.17;;
20076;SDS011;12348;42.710;23.378;2023-08-12T10:17:37;2.45;;;1.98;;
20076;SDS011;12348;42.710;23.378;2023-08-12T10:20:06;1.95;;;1.48;;
20076;SDS011;12348;42.710;23.378;2023-08-12T10:22:35;3.13;;;2.42;;
20076;SDS011;12348;42.710;23.378;2023-08-12T10:25:05;3.50;;;2.90;;
20076;SDS011;12348;42.710;23.378;2023-08-12T10:27:34;4.90;;;2.65;;
20076;SDS011;12348;42.710;23.378;2023-08-12T10:30:02;2.03;;;1.65;;
20076;SDS011;12348;42.710;23.378;2023-08-12T10:32:31;4.60;;;3.10;;
20076;SDS011;12348;42.710;23.378;2023-08-12T10:34:58;2.65;;;2.17;;
20076;SDS011;12348;42.710;23.378;2023-08-12T10:37:25;1.60;;;1.40;;
20076;SDS011;12348;42.710;23.378;2023-08-12T10:39:52;2.33;;;2.13;;
20076;SDS011;12348;42.710;23.378;2023-08-12T10:45:09;5.47;;;2.95;;
20076;SDS011;12348;42.710;23.378;2023-08-12T10:47:41;3.72;;;1.95;;
20076;SDS011;12348;42.710;23.378;2023-08-12T10:50:18;5.70;;;3.88;;
20076;SDS011;12348;42.710;23.378;2023-08-12T10:52:45;5.45;;;2.80;;
20076;SDS011;12348;42.710;23.378;2023-08-12T10:55:19;2.25;;;1.67;;
20076;SDS011;12348;42.710;23.378;2023-08-12T10:57:47;3.38;;;2.75;;
20076;SDS011;12348;42.710;23.378;2023-08-12T11:00:15;1.95;;;1.70;;
20076;SDS011;12348;42.710;23.378;2023-08-12T11:02:48;4.63;;;3.35;;
20076;SDS011;12348;42.710;23.378;2023-08-12T11:05:16;2.35;;;1.90;;
20076;SDS011;12348;42.710;23.378;2023-08-12T11:07:45;2.75;;;1.80;;
20076;SDS011;12348;42.710;23.378;2023-08-12T11:10:14;3.33;;;1.67;;
20076;SDS011;12348;42.710;23.378;2023-08-12T11:12:47;2.70;;;1.60;;
20076;SDS011;12348;42.710;23.378;2023-08-12T11:15:19;6.13;;;2.30;;
20076;SDS011;12348;42.710;23.378;2023-08-12T11:17:57;2.53;;;2.03;;
20076;SDS011;12348;42.710;23.378;2023-08-12T11:20:24;3.43;;;2.07;;
20076;SDS011;12348;42.710;23.378;2023-08-12T11:22:51;2.27;;;1.77;;
20076;SDS011;12348;42.710;23.378;2023-08-12T11:25:19;3.60;;;1.60;;
20076;SDS011;12348;42.710;23.378;2023-08-12T11:27:46;4.60;;;3.17;;
20076;SDS011;12348;42.710;23.378;2023-08-12T11:30:14;4.73;;;3.57;;
20076;SDS011;12348;42.710;23.378;2023-08-12T11:32:42;3.20;;;2.33;;
20076;SDS011;12348;42.710;23.378;2023-08-12T11:35:12;3.53;;;2.23;;
20076;SDS011;12348;42.710;23.378;2023-08-12T11:37:39;3.40;;;1.67;;
20076;SDS011;12348;42.710;23.378;2023-08-12T11:40:08;2.80;;;2.33;;
20076;SDS011;12348;42.710;23.378;2023-08-12T11:42:38;5.47;;;2.10;;
20076;SDS011;12348;42.710;23.378;2023-08-12T11:45:06;2.23;;;1.70;;
20076;SDS011;12348;42.710;23.378;2023-08-12T11:47:33;4.53;;;1.63;;
20076;SDS011;12348;42.710;23.378;2023-08-12T11:50:01;4.53;;;1.90;;
20076;SDS011;12348;42.710;23.378;2023-08-12T11:52:30;4.70;;;1.90;;
20076;SDS011;12348;42.710;23.378;2023-08-12T11:54:57;2.43;;;1.77;;
20076;SDS011;12348;42.710;23.378;2023-08-12T11:57:24;2.83;;;2.43;;
20076;SDS011;12348;42.710;23.378;2023-08-12T11:59:53;2.33;;;1.80;;
20076;SDS011;12348;42.710;23.378;2023-08-12T12:02:20;4.73;;;2.03;;
20076;SDS011;12348;42.710;23.378;2023-08-12T12:04:46;3.13;;;1.67;;
20076;SDS011;12348;42.710;23.378;2023-08-12T12:07:16;2.23;;;2.03;;
20076;SDS011;12348;42.710;23.378;2023-08-12T12:09:45;3.10;;;2.30;;
20076;SDS011;12348;42.710;23.378;2023-08-12T12:12:12;3.03;;;2.20;;
20076;SDS011;12348;42.710;23.378;2023-08-12T12:14:39;2.10;;;1.90;;
20076;SDS011;12348;42.710;23.378;2023-08-12T12:17:07;2.40;;;2.07;;
20076;SDS011;12348;42.710;23.378;2023-08-12T12:19:35;2.97;;;1.60;;
20076;SDS011;12348;42.710;23.378;2023-08-12T12:22:02;3.20;;;1.80;;
20076;SDS011;12348;42.710;23.378;2023-08-12T12:24:30;3.07;;;2.00;;
20076;SDS011;12348;42.710;23.378;2023-08-12T12:26:58;3.07;;;1.63;;
20076;SDS011;12348;42.710;23.378;2023-08-12T12:29:25;2.03;;;1.80;;
20076;SDS011;12348;42.710;23.378;2023-08-12T12:31:52;2.67;;;1.80;;
20076;SDS011;12348;42.710;23.378;2023-08-12T12:34:19;4.17;;;1.87;;
20076;SDS011;12348;42.710;23.378;2023-08-12T12:36:45;7.70;;;1.40;;
20076;SDS011;12348;42.710;23.378;2023-08-12T12:39:12;2.13;;;1.43;;
20076;SDS011;12348;42.710;23.378;2023-08-12T12:41:39;4.73;;;3.30;;
20076;SDS011;12348;42.710;23.378;2023-08-12T12:44:07;3.33;;;2.47;;
20076;SDS011;12348;42.710;23.378;2023-08-12T12:46:34;1.97;;;1.77;;
20076;SDS011;12348;42.710;23.378;2023-08-12T12:49:01;3.93;;;3.13;;
20076;SDS011;12348;42.710;23.378;2023-08-12T12:51:31;2.13;;;1.90;;
20076;SDS011;12348;42.710;23.378;2023-08-12T12:53:58;3.13;;;2.23;;
20076;SDS011;12348;42.710;23.378;2023-08-12T12:56:25;2.13;;;1.87;;
20076;SDS011;12348;42.710;23.378;2023-08-12T12:58:51;3.47;;;2.07;;
20076;SDS011;12348;42.710;23.378;2023-08-12T13:01:20;2.27;;;1.70;;
20076;SDS011;12348;42.710;23.378;2023-08-12T13:03:46;1.43;;;1.33;;
20076;SDS011;12348;42.710;23.378;2023-08-12T13:06:13;2.10;;;1.83;;
20076;SDS011;12348;42.710;23.378;2023-08-12T13:08:40;3.73;;;1.67;;
20076;SDS011;12348;42.710;23.378;2023-08-12T13:11:06;5.37;;;3.60;;
20076;SDS011;12348;42.710;23.378;2023-08-12T13:13:33;1.77;;;1.60;;
20076;SDS011;12348;42.710;23.378;2023-08-12T13:16:00;3.07;;;1.57;;
20076;SDS011;12348;42.710;23.378;2023-08-12T13:18:29;2.63;;;1.90;;
20076;SDS011;12348;42.710;23.378;2023-08-12T13:20:55;4.53;;;2.70;;
20076;SDS011;12348;42.710;23.378;2023-08-12T13:23:22;1.87;;;1.23;;
20076;SDS011;12348;42.710;23.378;2023-08-12T13:25:49;2.40;;;2.20;;
20076;SDS011;12348;42.710;23.378;2023-08-12T13:28:16;1.60;;;1.50;;
20076;SDS011;12348;42.710;23.378;2023-08-12T13:30:43;1.87;;;1.47;;
20076;SDS011;12348;42.710;23.378;2023-08-12T13:33:10;2.87;;;1.57;;
20076;SDS011;12348;42.710;23.378;2023-08-12T13:35:39;2.77;;;1.50;;
20076;SDS011;12348;42.710;23.378;2023-08-12T13:38:05;2.80;;;2.17;;
20076;SDS011;12348;42.710;23.378;2023-08-12T13:40:32;2.87;;;1.70;;
20076;SDS011;12348;42.710;23.378;2023-08-12T13:42:59;2.20;;;1.83;;
20076;SDS011;12348;42.710;23.378;2023-08-12T13:45:26;1.57;;;1.30;;
20076;SDS011;12348;42.710;23.378;2023-08-12T13:47:53;2.53;;;1.77;;
20076;SDS011;12348;42.710;23.378;2023-08-12T13:50:20;2.53;;;1.60;;
20076;SDS011;12348;42.710;23.378;2023-08-12T13:52:50;1.70;;;1.60;;
20076;SDS011;12348;42.710;23.378;2023-08-12T13:55:17;3.93;;;1.67;;
20076;SDS011;12348;42.710;23.378;2023-08-12T13:57:43;7.53;;;1.67;;
20076;SDS011;12348;42.710;23.378;2023-08-12T14:00:10;3.30;;;1.60;;
20076;SDS011;12348;42.710;23.378;2023-08-12T14:02:39;1.73;;;1.13;;
20076;SDS011;12348;42.710;23.378;2023-08-12T14:05:06;2.20;;;1.47;;
20076;SDS011;12348;42.710;23.378;2023-08-12T14:07:35;4.53;;;1.60;;
20076;SDS011;12348;42.710;23.378;2023-08-12T14:10:03;2.23;;;1.50;;
20076;SDS011;12348;42.710;23.378;2023-08-12T14:12:33;1.87;;;1.53;;
20076;SDS011;12348;42.710;23.378;2023-08-12T14:15:00;1.93;;;1.40;;
20076;SDS011;12348;42.710;23.378;2023-08-12T14:17:27;2.07;;;1.43;;
20076;SDS011;12348;42.710;23.378;2023-08-12T14:19:53;3.33;;;1.47;;
20076;SDS011;12348;42.710;23.378;2023-08-12T14:22:20;1.63;;;1.50;;
20076;SDS011;12348;42.710;23.378;2023-08-12T14:24:47;1.50;;;1.30;;
20076;SDS011;12348;42.710;23.378;2023-08-12T14:27:16;3.83;;;1.90;;
20076;SDS011;12348;42.710;23.378;2023-08-12T14:29:43;1.40;;;1.30;;
20076;SDS011;12348;42.710;23.378;2023-08-12T14:32:10;3.20;;;2.37;;
20076;SDS011;12348;42.710;23.378;2023-08-12T14:34:37;4.57;;;1.73;;
20076;SDS011;12348;42.710;23.378;2023-08-12T14:37:04;3.07;;;2.07;;